This is the latest recevied weather packets stored in our database for station/object KB3AWQ. If no packets are shown the sender has not sent any weather packets the latest 10 day(s).
| Time | Temp. | Humidity | Pressure | Rain* | Wind** | Luminosity | Snow |
|---|---|---|---|---|---|---|---|
| 1787844271 | 25.56° C | 81% | 1015.3 hPa | 0 mm | - | 397 W/m² | - |
| 1787843966 | 26.11° C | 81% | 1015.3 hPa | 0 mm | - | 327 W/m² | - |
| 1787843666 | 26.11° C | 80% | 1015.3 hPa | 0 mm | - | 304 W/m² | - |
| 1787843076 | 26.67° C | 77% | 1015.4 hPa | 0 mm | - | 412 W/m² | - |
| 1787842767 | 26.11° C | 79% | 1015.4 hPa | 0 mm | - | 385 W/m² | - |
| 1787842466 | 26.11° C | 79% | 1015.5 hPa | 0 mm | - | 803 W/m² | - |
| 1787842166 | 25.56° C | 79% | 1015.4 hPa | 0 mm | - | 625 W/m² | - |
| 1787841867 | 25.56° C | 81% | 1015.3 hPa | 0 mm | - | 434 W/m² | - |
| 1787841566 | 25° C | 82% | 1015.4 hPa | 0 mm | - | 652 W/m² | - |
| 1787841266 | 25° C | 84% | 1015.4 hPa | 0 mm | - | 658 W/m² | - |
| 1787840966 | 25° C | 83% | 1015.5 hPa | 0 mm | - | 603 W/m² | - |
| 1787840666 | 24.44° C | 84% | 1015.4 hPa | 0 mm | - | 676 W/m² | - |
| 1787840368 | 24.44° C | 85% | 1015.3 hPa | 0 mm | - | 475 W/m² | - |
| 1787840066 | 23.89° C | 85% | 1015.3 hPa | 0 mm | - | 197 W/m² | - |
| 1787839767 | 24.44° C | 84% | 1015.3 hPa | 0 mm | - | 190 W/m² | - |
| 1787839468 | 24.44° C | 84% | 1015.3 hPa | 0 mm | - | 276 W/m² | - |
| 1787839167 | 24.44° C | 84% | 1015.4 hPa | 0 mm | - | 638 W/m² | - |
| 1787838867 | 23.89° C | 84% | 1015.5 hPa | 0 mm | - | 602 W/m² | - |
| 1787838568 | 23.33° C | 87% | 1015.6 hPa | 0 mm | - | 454 W/m² | - |
| 1787838266 | 22.78° C | 90% | 1015.6 hPa | 0 mm | - | 521 W/m² | - |
| 1787837967 | 22.78° C | 87% | 1015.7 hPa | 0 mm | - | 494 W/m² | - |
| 1787837671 | 22.22° C | 90% | 1015.8 hPa | 0 mm | - | 232 W/m² | - |
| 1787837367 | 21.67° C | 91% | 1015.9 hPa | 0 mm | - | 456 W/m² | - |
| 1787837068 | 21.67° C | 91% | 1016 hPa | 0 mm | - | 230 W/m² | - |
| 1787836767 | 21.67° C | 91% | 1015.9 hPa | 0 mm | - | 346 W/m² | - |
* Rain latest hour (hover to see other rain measurements)
** Current wind speed in m/s (hover to see current wind gust speed)